createdAt,value
2018-02-27T00:00:33.125Z,2.93
2018-02-27T00:01:35.603Z,7.80
2018-02-27T00:02:38.075Z,2.00
2018-02-27T00:03:40.558Z,5.23
2018-02-27T00:04:43.043Z,7.37
2018-02-27T00:05:45.521Z,4.07
2018-02-27T00:06:48.002Z,1.20
2018-02-27T00:07:50.476Z,3.50
2018-02-27T00:08:52.940Z,3.83
2018-02-27T00:09:55.431Z,3.20
2018-02-27T00:10:57.899Z,3.40
2018-02-27T00:12:00.376Z,1.93
2018-02-27T00:13:02.873Z,3.37
2018-02-27T00:14:05.339Z,2.00
2018-02-27T00:15:07.841Z,3.00
2018-02-27T00:16:10.311Z,4.13
2018-02-27T00:17:12.775Z,4.23
2018-02-27T00:18:15.247Z,3.13
2018-02-27T00:19:17.717Z,1.53
2018-02-27T00:20:20.200Z,3.03
2018-02-27T00:21:22.677Z,1.60
2018-02-27T00:22:25.143Z,4.30
2018-02-27T00:23:27.733Z,2.50
2018-02-27T00:24:30.233Z,6.27
2018-02-27T00:25:32.761Z,5.60
2018-02-27T00:26:35.219Z,2.50
2018-02-27T00:27:37.697Z,8.30
2018-02-27T00:28:40.166Z,1.40
2018-02-27T00:29:42.650Z,3.40
2018-02-27T00:30:45.143Z,6.50
2018-02-27T00:31:47.620Z,3.30
2018-02-27T00:32:50.103Z,4.37
2018-02-27T00:33:52.570Z,3.10
2018-02-27T00:34:55.046Z,2.23
2018-02-27T00:35:57.541Z,4.00
2018-02-27T00:37:00.016Z,2.10
2018-02-27T00:38:02.495Z,3.23
2018-02-27T00:39:04.969Z,3.20
2018-02-27T00:40:07.446Z,8.70
2018-02-27T00:41:09.945Z,1.93
2018-02-27T00:42:12.411Z,1.93
2018-02-27T00:43:14.871Z,2.90
2018-02-27T00:44:17.356Z,1.87
2018-02-27T00:45:19.818Z,4.47
2018-02-27T00:46:22.317Z,2.07
2018-02-27T00:47:24.785Z,2.27
2018-02-27T00:48:27.273Z,2.50
2018-02-27T00:49:29.776Z,5.07
2018-02-27T00:50:32.266Z,1.70
2018-02-27T00:51:34.779Z,2.70
2018-02-27T00:52:37.261Z,5.40
2018-02-27T00:53:39.750Z,4.83
2018-02-27T00:54:42.211Z,5.83
2018-02-27T00:55:44.699Z,1.77
2018-02-27T00:56:47.183Z,5.50
2018-02-27T00:57:49.664Z,2.53
2018-02-27T00:58:52.145Z,1.60
2018-02-27T00:59:54.679Z,1.77
2018-02-27T01:00:57.166Z,30.10
2018-02-27T01:01:59.734Z,5.13
2018-02-27T01:03:02.225Z,2.55
2018-02-27T01:04:04.708Z,2.73
2018-02-27T01:05:07.175Z,3.60
2018-02-27T01:06:09.657Z,6.23
2018-02-27T01:07:12.135Z,5.27
2018-02-27T01:08:14.602Z,2.37
2018-02-27T01:09:17.068Z,2.30
2018-02-27T01:10:19.533Z,1.53
2018-02-27T01:11:22.011Z,2.50
2018-02-27T01:12:24.494Z,2.30
2018-02-27T01:13:27.009Z,7.17
2018-02-27T01:14:29.447Z,2.83
2018-02-27T01:15:32.026Z,6.53
2018-02-27T01:16:34.506Z,5.53
2018-02-27T01:17:37.001Z,4.63
2018-02-27T01:18:39.481Z,3.90
2018-02-27T01:19:41.970Z,2.10
2018-02-27T01:20:44.449Z,9.60
2018-02-27T01:21:46.936Z,6.28
2018-02-27T01:22:49.449Z,5.00
2018-02-27T01:23:51.936Z,10.10
2018-02-27T01:24:54.418Z,9.20
2018-02-27T01:25:57.079Z,7.78
2018-02-27T01:26:59.534Z,7.40
2018-02-27T01:28:02.034Z,2.77
2018-02-27T01:29:04.513Z,2.35
2018-02-27T01:30:06.998Z,6.70
2018-02-27T01:31:09.477Z,3.60
2018-02-27T01:32:11.947Z,4.50
2018-02-27T01:33:14.445Z,6.90
2018-02-27T01:34:16.911Z,8.20
2018-02-27T01:35:19.383Z,6.67
2018-02-27T01:36:21.873Z,2.55
2018-02-27T01:37:24.357Z,6.47
2018-02-27T01:38:26.852Z,7.35
2018-02-27T01:39:29.328Z,6.27
2018-02-27T01:40:31.791Z,8.90
2018-02-27T01:41:34.255Z,4.57
2018-02-27T01:42:36.722Z,9.37
2018-02-27T01:43:39.233Z,4.83
2018-02-27T01:44:41.700Z,4.53
2018-02-27T01:45:44.186Z,3.27
2018-02-27T01:46:46.681Z,3.05
2018-02-27T01:47:49.269Z,8.02
2018-02-27T01:48:51.779Z,6.53
2018-02-27T01:49:54.268Z,3.72
2018-02-27T01:51:08.814Z,5.10
2018-02-27T01:52:11.293Z,4.60
2018-02-27T01:53:13.759Z,6.63
2018-02-27T01:54:16.239Z,1.30
2018-02-27T01:55:18.734Z,2.55
2018-02-27T01:56:21.319Z,14.20
2018-02-27T01:57:23.804Z,9.60
2018-02-27T01:58:26.271Z,2.00
2018-02-27T01:59:28.758Z,5.03
2018-02-27T02:00:31.248Z,3.53
2018-02-27T02:01:33.715Z,3.10
2018-02-27T02:02:36.185Z,2.30
2018-02-27T02:03:38.660Z,5.80
2018-02-27T02:04:41.142Z,4.50
2018-02-27T02:05:43.639Z,4.18
2018-02-27T02:06:46.129Z,4.75
2018-02-27T02:07:48.625Z,1.62
2018-02-27T02:08:51.114Z,2.45
2018-02-27T02:09:53.613Z,2.67
2018-02-27T02:10:56.087Z,7.95
2018-02-27T02:11:58.588Z,10.18
2018-02-27T02:13:01.068Z,3.85
2018-02-27T02:14:03.560Z,2.08
2018-02-27T02:15:06.051Z,5.00
2018-02-27T02:16:08.543Z,6.18
2018-02-27T02:17:11.032Z,5.12
2018-02-27T02:18:13.499Z,4.83
2018-02-27T02:19:15.975Z,4.18
2018-02-27T02:20:18.467Z,7.62
2018-02-27T02:21:20.936Z,4.97
2018-02-27T02:22:23.402Z,2.93
2018-02-27T02:23:25.882Z,3.70
2018-02-27T02:24:28.347Z,1.20
2018-02-27T02:25:30.849Z,5.15
2018-02-27T02:26:33.326Z,5.93
2018-02-27T02:27:35.796Z,5.50
2018-02-27T02:28:38.274Z,6.32
2018-02-27T02:29:40.755Z,6.68
2018-02-27T02:30:43.261Z,2.45
2018-02-27T02:31:45.739Z,2.08
2018-02-27T02:32:48.216Z,4.43
2018-02-27T02:33:50.698Z,2.72
2018-02-27T02:34:53.172Z,4.25
2018-02-27T02:35:55.659Z,3.70
2018-02-27T02:36:58.158Z,5.53
2018-02-27T02:38:00.685Z,2.10
2018-02-27T02:39:03.154Z,5.80
2018-02-27T02:40:05.634Z,18.37
2018-02-27T02:41:08.141Z,5.85
2018-02-27T02:42:25.496Z,4.32
2018-02-27T02:43:27.974Z,4.77
2018-02-27T02:44:30.461Z,6.40
2018-02-27T02:45:32.938Z,5.57
2018-02-27T02:46:35.431Z,2.22
2018-02-27T02:47:37.911Z,5.57
2018-02-27T02:48:40.401Z,3.87
2018-02-27T02:49:42.888Z,2.40
2018-02-27T02:50:45.369Z,6.37
2018-02-27T02:51:47.867Z,5.15
2018-02-27T02:52:50.342Z,3.30
2018-02-27T02:53:52.849Z,2.83
2018-02-27T02:54:55.337Z,5.50
2018-02-27T02:55:57.814Z,1.35
2018-02-27T02:57:00.321Z,2.20
2018-02-27T02:58:02.815Z,3.60
2018-02-27T02:59:05.305Z,2.95
2018-02-27T03:00:07.778Z,2.45
2018-02-27T03:01:10.255Z,4.37
2018-02-27T03:02:12.752Z,2.05
2018-02-27T03:03:15.230Z,3.70
2018-02-27T03:04:17.703Z,0.85
2018-02-27T03:05:20.189Z,7.45
2018-02-27T03:06:22.677Z,6.05
2018-02-27T03:07:25.175Z,3.00
2018-02-27T03:08:27.639Z,12.80
2018-02-27T03:09:30.160Z,5.60
2018-02-27T03:10:32.646Z,2.43
2018-02-27T03:11:35.134Z,8.32
2018-02-27T03:12:37.631Z,2.50
2018-02-27T03:13:40.110Z,4.05
2018-02-27T03:14:42.597Z,1.92
2018-02-27T03:15:45.072Z,0.93
2018-02-27T03:16:47.549Z,10.15
2018-02-27T03:17:50.069Z,1.62
2018-02-27T03:18:52.541Z,1.10
2018-02-27T03:19:55.019Z,2.95
2018-02-27T03:20:57.495Z,1.40
2018-02-27T03:21:59.990Z,2.30
2018-02-27T03:23:02.492Z,3.22
2018-02-27T03:24:04.977Z,4.25
2018-02-27T03:25:07.462Z,1.70
2018-02-27T03:26:09.935Z,7.22
2018-02-27T03:27:12.415Z,2.33
2018-02-27T03:28:14.913Z,5.60
2018-02-27T03:29:17.394Z,3.30
2018-02-27T03:30:19.877Z,8.23
2018-02-27T03:31:22.360Z,3.55
2018-02-27T03:32:24.842Z,10.63
2018-02-27T03:33:27.343Z,1.80
2018-02-27T03:34:29.832Z,5.62
2018-02-27T03:35:32.317Z,2.22
2018-02-27T03:36:34.798Z,2.40
2018-02-27T03:37:37.287Z,3.80
2018-02-27T03:38:39.800Z,2.50
2018-02-27T03:39:42.278Z,2.75
2018-02-27T03:40:44.763Z,11.20
2018-02-27T03:41:47.247Z,1.77
2018-02-27T03:42:49.719Z,2.90
2018-02-27T03:43:52.278Z,3.37
2018-02-27T03:44:54.755Z,2.85
2018-02-27T03:45:57.231Z,5.12
2018-02-27T03:46:59.731Z,6.18
2018-02-27T03:48:02.356Z,6.43
2018-02-27T03:49:04.849Z,1.73
2018-02-27T03:50:07.319Z,5.25
2018-02-27T03:51:09.800Z,8.25
2018-02-27T03:52:15.151Z,4.55
2018-02-27T03:53:17.631Z,4.65
2018-02-27T03:54:20.107Z,5.47
2018-02-27T03:55:22.597Z,3.55
2018-02-27T03:56:25.081Z,4.32
2018-02-27T03:57:27.578Z,3.83
2018-02-27T03:58:30.077Z,8.18
2018-02-27T03:59:32.579Z,10.00
2018-02-27T04:00:35.055Z,7.97
2018-02-27T04:01:37.527Z,3.42
2018-02-27T04:02:40.017Z,7.18
2018-02-27T04:03:42.513Z,5.35
2018-02-27T04:04:45.006Z,12.60
2018-02-27T04:05:47.497Z,3.83
2018-02-27T04:06:49.971Z,2.87
2018-02-27T04:07:52.462Z,3.15
2018-02-27T04:08:54.958Z,3.37
2018-02-27T04:09:57.437Z,2.53
2018-02-27T04:10:59.915Z,4.62
2018-02-27T04:12:02.404Z,4.82
2018-02-27T04:13:04.868Z,3.90
2018-02-27T04:14:07.353Z,7.70
2018-02-27T04:15:09.830Z,5.93
2018-02-27T04:16:12.323Z,1.45
2018-02-27T04:17:14.799Z,4.75
2018-02-27T04:18:17.293Z,3.80
2018-02-27T04:19:19.770Z,1.80
2018-02-27T04:20:22.290Z,1.15
2018-02-27T04:21:24.763Z,3.15
2018-02-27T04:22:27.277Z,6.93
2018-02-27T04:23:29.765Z,2.25
2018-02-27T04:24:32.247Z,3.00
2018-02-27T04:25:34.723Z,1.62
2018-02-27T04:26:37.195Z,6.53
2018-02-27T04:27:39.690Z,2.80
2018-02-27T04:28:42.218Z,3.15
2018-02-27T04:29:44.753Z,2.08
2018-02-27T04:30:47.249Z,3.15
2018-02-27T04:31:49.723Z,1.62
2018-02-27T04:32:52.213Z,4.22
2018-02-27T04:33:54.695Z,3.55
2018-02-27T04:34:57.179Z,14.35
2018-02-27T04:35:59.681Z,5.90
2018-02-27T04:37:02.162Z,4.25
2018-02-27T04:38:04.649Z,1.55
2018-02-27T04:39:07.125Z,4.93
2018-02-27T04:40:09.617Z,1.50
2018-02-27T04:41:12.087Z,4.50
2018-02-27T04:42:14.553Z,5.28
2018-02-27T04:43:17.024Z,3.62
2018-02-27T04:44:19.498Z,3.90
2018-02-27T04:45:21.988Z,1.45
2018-02-27T04:46:24.465Z,3.08
2018-02-27T04:47:26.955Z,1.00
2018-02-27T04:48:29.442Z,15.05
2018-02-27T04:49:31.927Z,3.33
2018-02-27T04:50:34.416Z,5.03
2018-02-27T04:51:36.912Z,2.28
2018-02-27T04:52:39.387Z,4.97
2018-02-27T04:53:41.874Z,4.03
2018-02-27T04:54:44.359Z,8.27
2018-02-27T04:55:46.826Z,3.75
2018-02-27T04:56:49.327Z,1.40
2018-02-27T04:57:51.804Z,25.83
2018-02-27T04:58:54.293Z,4.40
2018-02-27T04:59:56.777Z,5.22
2018-02-27T05:00:59.251Z,5.00
2018-02-27T05:02:01.761Z,13.25
2018-02-27T05:03:04.256Z,2.97
2018-02-27T05:04:06.726Z,6.72
2018-02-27T05:05:09.202Z,12.85
2018-02-27T05:06:11.686Z,8.13
2018-02-27T05:07:14.179Z,8.13
2018-02-27T05:08:16.670Z,2.00
2018-02-27T05:09:19.155Z,7.78
2018-02-27T05:10:21.641Z,2.90
2018-02-27T05:11:24.156Z,2.37
2018-02-27T05:12:26.668Z,3.00
2018-02-27T05:13:29.160Z,14.52
2018-02-27T05:14:31.635Z,8.77
2018-02-27T05:15:34.111Z,2.08
2018-02-27T05:16:36.598Z,8.85
2018-02-27T05:17:39.105Z,1.02
2018-02-27T05:18:41.575Z,8.55
2018-02-27T05:19:44.048Z,2.17
2018-02-27T05:20:46.671Z,4.65
2018-02-27T05:21:49.162Z,9.07
2018-02-27T05:22:51.678Z,4.90
2018-02-27T05:23:54.161Z,8.73
2018-02-27T05:24:56.637Z,3.97
2018-02-27T05:25:59.141Z,3.55
2018-02-27T05:27:01.619Z,2.50
2018-02-27T05:28:04.110Z,2.78
2018-02-27T05:29:06.582Z,4.93
2018-02-27T05:30:09.064Z,6.82
2018-02-27T05:31:11.547Z,1.90
2018-02-27T05:32:14.099Z,3.85
2018-02-27T05:33:16.595Z,5.37
2018-02-27T05:34:19.074Z,15.40
2018-02-27T05:35:21.548Z,4.93
2018-02-27T05:36:24.015Z,5.43
2018-02-27T05:37:26.510Z,6.40
2018-02-27T05:38:29.024Z,2.62
2018-02-27T05:39:31.521Z,3.90
2018-02-27T05:40:34.011Z,4.97
2018-02-27T05:41:36.493Z,1.60
2018-02-27T05:42:38.988Z,1.73
2018-02-27T05:43:41.490Z,7.12
2018-02-27T05:44:43.982Z,2.35
2018-02-27T05:45:46.460Z,3.72
2018-02-27T05:46:48.948Z,0.98
2018-02-27T05:47:51.421Z,7.50
2018-02-27T05:48:53.939Z,1.87
2018-02-27T05:49:56.411Z,7.68
2018-02-27T05:50:58.883Z,4.18
2018-02-27T05:52:01.359Z,4.00
2018-02-27T05:53:03.865Z,1.80
2018-02-27T05:54:06.360Z,9.95
2018-02-27T05:55:08.835Z,5.72
2018-02-27T05:56:11.307Z,2.70
2018-02-27T05:57:13.801Z,3.42
2018-02-27T05:58:16.276Z,5.10
2018-02-27T05:59:18.763Z,7.97
2018-02-27T06:00:21.246Z,8.40
2018-02-27T06:01:23.733Z,3.03
2018-02-27T06:02:26.199Z,3.33
2018-02-27T06:03:28.675Z,0.90
2018-02-27T06:04:31.197Z,2.37
2018-02-27T06:05:33.680Z,1.73
2018-02-27T06:06:36.155Z,2.05
2018-02-27T06:07:38.632Z,1.98
2018-02-27T06:08:41.105Z,2.67
2018-02-27T06:09:43.600Z,2.53
2018-02-27T06:10:46.076Z,1.65
2018-02-27T06:11:48.561Z,5.47
2018-02-27T06:12:51.046Z,4.30
2018-02-27T06:13:53.520Z,5.47
2018-02-27T06:14:56.025Z,3.92
2018-02-27T06:15:58.495Z,2.72
2018-02-27T06:17:00.976Z,6.30
2018-02-27T06:18:03.452Z,2.35
2018-02-27T06:19:05.946Z,5.18
2018-02-27T06:20:08.454Z,3.05
2018-02-27T06:21:10.936Z,4.72
2018-02-27T06:22:13.428Z,14.87
2018-02-27T06:23:15.911Z,2.92
2018-02-27T06:24:18.379Z,3.95
2018-02-27T06:25:20.893Z,2.83
2018-02-27T06:26:23.380Z,2.75
2018-02-27T06:27:25.853Z,8.30
2018-02-27T06:28:28.448Z,4.55
2018-02-27T06:29:30.926Z,3.55
2018-02-27T06:30:33.446Z,1.62
2018-02-27T06:31:35.952Z,5.93
2018-02-27T06:32:38.428Z,1.50
2018-02-27T06:33:40.917Z,5.95
2018-02-27T06:34:43.402Z,3.22
2018-02-27T06:35:45.900Z,1.10
2018-02-27T06:36:48.372Z,5.20
2018-02-27T06:37:50.843Z,5.40
2018-02-27T06:38:53.320Z,4.05
2018-02-27T06:39:55.794Z,1.55
2018-02-27T06:40:58.301Z,3.60
2018-02-27T06:42:00.775Z,1.20
2018-02-27T06:43:03.247Z,4.07
2018-02-27T06:44:05.733Z,4.10
2018-02-27T06:45:08.211Z,1.17
2018-02-27T06:46:10.719Z,4.43
2018-02-27T06:47:13.251Z,2.37
2018-02-27T06:48:15.757Z,3.20
2018-02-27T06:49:18.566Z,4.57
2018-02-27T06:50:21.067Z,5.95
2018-02-27T06:51:23.575Z,3.25
2018-02-27T06:52:26.048Z,3.67
2018-02-27T06:53:28.547Z,2.55
2018-02-27T06:54:31.019Z,2.80
2018-02-27T06:55:33.517Z,2.78
2018-02-27T06:56:36.015Z,2.97
2018-02-27T06:57:38.561Z,3.58
2018-02-27T06:58:41.036Z,3.95
2018-02-27T06:59:43.520Z,1.08
2018-02-27T07:00:45.997Z,2.45
2018-02-27T07:01:48.501Z,2.75
2018-02-27T07:02:51.000Z,3.60
2018-02-27T07:03:53.509Z,2.30
2018-02-27T07:04:55.993Z,1.55
2018-02-27T07:05:58.475Z,2.47
2018-02-27T07:07:00.990Z,1.27
2018-02-27T07:08:03.478Z,3.90
2018-02-27T07:09:05.970Z,3.42
2018-02-27T07:10:08.456Z,1.15
2018-02-27T07:11:10.927Z,3.45
2018-02-27T07:12:13.411Z,2.20
2018-02-27T07:13:15.936Z,3.53
2018-02-27T07:14:18.438Z,4.55
2018-02-27T07:15:20.951Z,4.90
2018-02-27T07:16:23.443Z,2.00
2018-02-27T07:17:25.935Z,4.10
2018-02-27T07:18:28.425Z,5.80
2018-02-27T07:19:30.904Z,4.35
2018-02-27T07:20:33.375Z,2.92
2018-02-27T07:21:35.871Z,5.85
2018-02-27T07:22:38.466Z,4.28
2018-02-27T07:23:40.965Z,6.45
2018-02-27T07:24:43.508Z,6.35
2018-02-27T07:25:45.979Z,4.57
2018-02-27T07:26:48.461Z,3.33
2018-02-27T07:27:51.013Z,4.95
2018-02-27T07:28:53.508Z,2.55
2018-02-27T07:29:56.000Z,19.45
2018-02-27T07:30:58.489Z,6.60
2018-02-27T07:32:00.981Z,5.50
2018-02-27T07:33:03.485Z,12.55
2018-02-27T07:34:05.965Z,10.65
2018-02-27T07:35:08.457Z,5.40
2018-02-27T07:36:10.941Z,7.03
2018-02-27T07:37:13.429Z,8.45
2018-02-27T07:38:15.922Z,8.07
2018-02-27T07:39:18.417Z,10.45
2018-02-27T07:40:20.913Z,11.12
2018-02-27T07:41:23.392Z,9.05
2018-02-27T07:42:25.876Z,12.52
2018-02-27T07:43:28.383Z,12.25
2018-02-27T07:44:30.873Z,3.75
2018-02-27T07:45:33.393Z,5.95
2018-02-27T07:46:35.867Z,6.28
2018-02-27T07:47:38.353Z,9.48
2018-02-27T07:48:40.848Z,5.25
2018-02-27T07:49:43.399Z,9.25
2018-02-27T07:50:45.888Z,8.40
2018-02-27T07:51:48.374Z,8.30
2018-02-27T07:52:50.855Z,15.50
2018-02-27T07:53:53.349Z,13.43
2018-02-27T07:54:55.836Z,7.70
2018-02-27T07:55:58.325Z,7.75
2018-02-27T07:57:00.800Z,9.38
2018-02-27T07:58:03.290Z,10.35
2018-02-27T07:59:05.763Z,7.00
2018-02-27T08:00:08.250Z,10.15
2018-02-27T08:01:10.722Z,9.40
2018-02-27T08:02:13.217Z,9.40
2018-02-27T08:03:15.693Z,9.85
2018-02-27T08:04:18.167Z,9.75
2018-02-27T08:05:20.657Z,8.75
2018-02-27T08:06:23.165Z,10.07
2018-02-27T08:07:25.673Z,8.15
2018-02-27T08:08:28.161Z,7.43
2018-02-27T08:09:30.636Z,7.90
2018-02-27T08:10:33.107Z,5.47
2018-02-27T08:11:35.603Z,8.55
2018-02-27T08:12:38.079Z,11.00
2018-02-27T08:13:40.572Z,10.68
2018-02-27T08:14:43.050Z,12.75
2018-02-27T08:15:45.577Z,11.40
2018-02-27T08:16:48.053Z,7.45
2018-02-27T08:17:50.537Z,9.15
2018-02-27T08:18:53.028Z,9.38
2018-02-27T08:19:55.507Z,8.10
2018-02-27T08:20:57.982Z,8.25
2018-02-27T08:22:00.469Z,6.82
2018-02-27T08:23:02.944Z,10.70
2018-02-27T08:24:05.427Z,12.48
2018-02-27T08:25:07.901Z,8.60
2018-02-27T08:26:10.392Z,9.45
2018-02-27T08:27:12.872Z,11.32
2018-02-27T08:28:15.382Z,11.43
2018-02-27T08:29:17.912Z,8.18
2018-02-27T08:30:20.396Z,7.32
2018-02-27T08:31:22.887Z,5.53
2018-02-27T08:32:25.388Z,6.68
2018-02-27T08:33:27.875Z,8.35
2018-02-27T08:34:30.386Z,7.87
2018-02-27T08:35:32.885Z,4.75
2018-02-27T08:36:35.366Z,8.30
2018-02-27T08:37:37.846Z,6.75
2018-02-27T08:38:40.354Z,9.00
2018-02-27T08:39:42.820Z,4.83
2018-02-27T08:40:45.310Z,9.43
2018-02-27T08:41:47.830Z,7.60
2018-02-27T08:42:50.359Z,5.65
2018-02-27T08:43:53.015Z,8.77
2018-02-27T08:44:55.513Z,6.03
2018-02-27T08:45:57.993Z,4.40
2018-02-27T08:47:00.468Z,6.95
2018-02-27T08:48:02.957Z,5.40
2018-02-27T08:49:05.450Z,9.88
2018-02-27T08:50:07.991Z,6.55
2018-02-27T08:51:10.501Z,7.95
2018-02-27T08:52:12.991Z,6.10
2018-02-27T08:53:15.467Z,5.18
2018-02-27T08:54:17.956Z,6.50
2018-02-27T08:55:20.446Z,6.50
2018-02-27T08:56:22.923Z,9.23
2018-02-27T08:57:25.411Z,4.90
2018-02-27T08:58:27.897Z,4.72
2018-02-27T08:59:30.398Z,5.35
2018-02-27T09:00:32.886Z,7.30
2018-02-27T09:01:35.372Z,5.70
2018-02-27T09:02:37.874Z,4.50
2018-02-27T09:03:40.356Z,5.65
2018-02-27T09:04:42.853Z,5.72
2018-02-27T09:05:45.319Z,6.60
2018-02-27T09:06:47.819Z,3.93
2018-02-27T09:07:50.314Z,7.13
2018-02-27T09:08:52.808Z,9.80
2018-02-27T09:09:55.314Z,8.47
2018-02-27T09:10:57.796Z,10.33
2018-02-27T09:12:00.259Z,9.53
2018-02-27T09:13:02.766Z,10.97
2018-02-27T09:14:05.270Z,11.43
2018-02-27T09:15:07.757Z,10.47
2018-02-27T09:16:10.242Z,13.73
2018-02-27T09:17:12.734Z,15.73
2018-02-27T09:18:15.216Z,10.33
2018-02-27T09:19:17.888Z,9.83
2018-02-27T09:20:20.506Z,12.20
2018-02-27T09:21:22.964Z,9.23
2018-02-27T09:22:25.596Z,13.17
2018-02-27T09:23:28.068Z,14.17
2018-02-27T09:24:30.552Z,7.40
2018-02-27T09:25:33.070Z,5.23
2018-02-27T09:26:35.507Z,11.97
2018-02-27T09:27:38.014Z,5.00
2018-02-27T09:28:40.555Z,6.97
2018-02-27T09:29:43.069Z,3.70
2018-02-27T09:30:45.558Z,4.83
2018-02-27T09:31:48.028Z,4.57
2018-02-27T09:32:50.496Z,7.73
2018-02-27T09:33:52.971Z,4.40
2018-02-27T09:34:55.793Z,9.23
2018-02-27T09:35:58.271Z,4.07
2018-02-27T09:37:00.764Z,22.10
2018-02-27T09:38:03.261Z,7.30
2018-02-27T09:39:05.750Z,11.73
2018-02-27T09:40:08.234Z,5.00
2018-02-27T09:41:11.018Z,10.23
2018-02-27T09:42:13.778Z,4.10
2018-02-27T09:43:16.271Z,18.17
2018-02-27T09:44:19.654Z,8.07
2018-02-27T09:45:22.235Z,7.27
2018-02-27T09:46:24.725Z,11.83
2018-02-27T09:47:27.279Z,7.43
2018-02-27T09:48:29.747Z,5.77
2018-02-27T09:49:32.212Z,6.33
2018-02-27T09:50:34.678Z,4.70
2018-02-27T09:51:37.152Z,7.70
2018-02-27T09:52:39.630Z,8.73
2018-02-27T09:53:42.109Z,6.30
2018-02-27T09:54:44.576Z,4.23
2018-02-27T09:55:47.079Z,5.67
2018-02-27T09:56:49.675Z,4.03
2018-02-27T09:57:52.158Z,5.50
2018-02-27T09:58:54.637Z,3.63
2018-02-27T09:59:57.282Z,5.50
2018-02-27T10:00:59.753Z,6.60
2018-02-27T10:02:02.376Z,6.30
2018-02-27T10:03:04.847Z,6.73
2018-02-27T10:04:07.344Z,5.77
2018-02-27T10:05:09.971Z,3.47
2018-02-27T10:06:12.502Z,4.87
2018-02-27T10:07:14.967Z,14.90
2018-02-27T10:08:18.039Z,7.63
2018-02-27T10:09:20.532Z,7.07
2018-02-27T10:10:23.008Z,6.30
2018-02-27T10:11:25.477Z,5.20
2018-02-27T10:12:27.977Z,10.47
2018-02-27T10:13:30.453Z,4.13
2018-02-27T10:14:32.939Z,9.90
2018-02-27T10:15:35.428Z,4.90
2018-02-27T10:16:37.895Z,6.33
2018-02-27T10:17:40.398Z,3.30
2018-02-27T10:18:42.891Z,7.53
2018-02-27T10:19:45.385Z,2.97
2018-02-27T10:20:47.868Z,3.20
2018-02-27T10:21:50.355Z,9.97
2018-02-27T10:22:52.823Z,5.27
2018-02-27T10:23:55.300Z,3.93
2018-02-27T10:24:57.806Z,2.90
2018-02-27T10:26:00.454Z,4.37
2018-02-27T10:27:02.931Z,14.33
2018-02-27T10:28:05.406Z,15.40
2018-02-27T10:29:07.890Z,6.57
2018-02-27T10:30:10.363Z,8.40
2018-02-27T10:31:12.823Z,3.40
2018-02-27T10:32:15.291Z,6.30
2018-02-27T10:33:17.759Z,6.80
2018-02-27T10:34:20.238Z,9.73
2018-02-27T10:35:23.069Z,11.03
2018-02-27T10:36:25.557Z,6.27
2018-02-27T10:37:28.023Z,16.70
2018-02-27T10:38:30.491Z,15.47
2018-02-27T10:39:32.955Z,6.70
2018-02-27T10:40:35.419Z,6.53
2018-02-27T10:41:37.890Z,7.37
2018-02-27T10:42:40.373Z,4.13
2018-02-27T10:43:42.864Z,5.80
2018-02-27T10:44:45.327Z,8.00
2018-02-27T10:45:47.799Z,6.70
2018-02-27T10:46:50.281Z,5.77
2018-02-27T10:47:52.775Z,11.83
2018-02-27T10:48:55.246Z,5.10
2018-02-27T10:49:57.732Z,4.77
2018-02-27T10:51:00.213Z,5.73
2018-02-27T10:52:02.679Z,4.20
2018-02-27T10:53:05.162Z,9.93
2018-02-27T10:54:07.645Z,5.13
2018-02-27T10:55:10.111Z,4.93
2018-02-27T10:56:12.605Z,5.33
2018-02-27T10:57:15.112Z,4.20
2018-02-27T10:58:17.570Z,3.97
2018-02-27T10:59:20.035Z,5.50
2018-02-27T11:00:28.131Z,4.60
2018-02-27T11:01:30.596Z,7.70
2018-02-27T11:02:33.073Z,4.37
2018-02-27T11:03:35.534Z,2.93
2018-02-27T11:04:38.009Z,3.03
2018-02-27T11:05:40.476Z,3.90
2018-02-27T11:06:42.947Z,2.73
2018-02-27T11:07:45.425Z,9.83
2018-02-27T11:08:47.895Z,5.77
2018-02-27T11:09:50.366Z,5.13
2018-02-27T11:10:52.832Z,2.43
2018-02-27T11:11:55.339Z,5.90
2018-02-27T11:12:57.828Z,2.30
2018-02-27T11:14:00.337Z,6.43
2018-02-27T11:15:02.813Z,4.03
2018-02-27T11:16:05.282Z,3.60
2018-02-27T11:17:07.783Z,4.60
2018-02-27T11:18:10.249Z,3.27
2018-02-27T11:19:12.742Z,2.80
2018-02-27T11:20:15.221Z,2.87
2018-02-27T11:21:17.688Z,6.90
2018-02-27T11:22:20.201Z,3.90
2018-02-27T11:23:22.718Z,3.33
2018-02-27T11:24:25.187Z,2.50
2018-02-27T11:25:27.711Z,6.73
2018-02-27T11:26:30.194Z,3.47
2018-02-27T11:27:32.698Z,4.30
2018-02-27T11:28:35.168Z,3.33
2018-02-27T11:29:37.650Z,3.87
2018-02-27T11:30:40.115Z,2.27
2018-02-27T11:31:42.604Z,3.80
2018-02-27T11:32:45.103Z,3.07
2018-02-27T11:33:47.586Z,3.60
2018-02-27T11:34:50.080Z,2.90
2018-02-27T11:35:52.556Z,6.47
2018-02-27T11:36:55.053Z,4.10
2018-02-27T11:37:57.561Z,3.77
2018-02-27T11:39:00.032Z,4.00
2018-02-27T11:40:02.527Z,5.03
2018-02-27T11:41:05.012Z,3.23
2018-02-27T11:42:07.491Z,4.00
2018-02-27T11:43:09.984Z,3.30
2018-02-27T11:44:12.451Z,5.43
2018-02-27T11:45:14.915Z,3.40
2018-02-27T11:46:17.393Z,4.40
2018-02-27T11:47:19.877Z,4.43
2018-02-27T11:48:22.371Z,2.97
2018-02-27T11:49:24.914Z,2.60
2018-02-27T11:50:27.399Z,3.63
2018-02-27T11:51:29.894Z,3.27
2018-02-27T11:52:32.384Z,2.80
2018-02-27T11:53:35.078Z,3.17
2018-02-27T11:54:37.557Z,5.10
2018-02-27T11:55:40.386Z,4.90
2018-02-27T11:56:42.859Z,4.37
2018-02-27T11:57:45.484Z,3.67
2018-02-27T11:58:48.006Z,3.60
2018-02-27T11:59:50.498Z,7.50
2018-02-27T12:00:52.977Z,3.20
2018-02-27T12:01:55.438Z,6.73
2018-02-27T12:02:57.904Z,2.70
2018-02-27T12:04:00.386Z,4.17
2018-02-27T12:05:02.859Z,5.00
2018-02-27T12:06:05.324Z,4.90
2018-02-27T12:07:07.799Z,2.80
2018-02-27T12:08:10.277Z,7.40
2018-02-27T12:09:12.772Z,3.40
2018-02-27T12:10:15.240Z,3.23
2018-02-27T12:11:17.720Z,3.33
2018-02-27T12:12:20.205Z,3.50
2018-02-27T12:13:22.691Z,3.17
2018-02-27T12:14:25.176Z,3.20
2018-02-27T12:15:27.681Z,4.03
2018-02-27T12:16:30.136Z,6.97
2018-02-27T12:17:32.598Z,4.97
2018-02-27T12:18:35.098Z,3.00
2018-02-27T12:19:37.566Z,3.77
2018-02-27T12:20:40.070Z,2.70
2018-02-27T12:21:42.540Z,5.27
2018-02-27T12:22:45.018Z,3.63
2018-02-27T12:23:47.483Z,2.90
2018-02-27T12:24:49.975Z,5.93
2018-02-27T12:25:52.485Z,8.03
2018-02-27T12:26:54.966Z,4.07
2018-02-27T12:27:57.458Z,3.60
2018-02-27T12:28:59.939Z,5.77
2018-02-27T12:30:02.455Z,2.43
2018-02-27T12:31:04.942Z,4.80
2018-02-27T12:32:07.440Z,2.93
2018-02-27T12:33:09.929Z,3.10
2018-02-27T12:34:12.435Z,7.57
2018-02-27T12:35:14.927Z,2.07
2018-02-27T12:36:17.421Z,3.80
2018-02-27T12:37:19.894Z,3.50
2018-02-27T12:38:22.409Z,3.97
2018-02-27T12:39:24.887Z,4.00
2018-02-27T12:40:27.365Z,7.67
2018-02-27T12:41:29.827Z,2.57
2018-02-27T12:42:32.310Z,3.83
2018-02-27T12:43:34.793Z,3.30
2018-02-27T12:44:37.273Z,5.03
2018-02-27T12:45:39.757Z,3.20
2018-02-27T12:46:42.221Z,3.87
2018-02-27T12:47:44.691Z,2.83
2018-02-27T12:48:47.482Z,2.97
2018-02-27T12:49:49.964Z,4.50
2018-02-27T12:50:52.443Z,4.50
2018-02-27T12:51:54.909Z,3.80
2018-02-27T12:52:57.383Z,4.20
2018-02-27T12:53:59.847Z,2.90
2018-02-27T12:55:02.318Z,6.93
2018-02-27T12:56:04.802Z,4.50
2018-02-27T12:57:07.283Z,2.33
2018-02-27T12:58:09.747Z,2.87
2018-02-27T12:59:12.215Z,3.60
2018-02-27T13:00:14.697Z,2.60
2018-02-27T13:01:17.173Z,3.10
2018-02-27T13:02:19.737Z,3.40
2018-02-27T13:03:22.221Z,2.50
2018-02-27T13:04:24.701Z,3.57
2018-02-27T13:05:27.176Z,4.37
2018-02-27T13:06:29.648Z,2.90
2018-02-27T13:07:32.138Z,3.20
2018-02-27T13:08:34.617Z,4.60
2018-02-27T13:09:37.110Z,2.40
2018-02-27T13:10:39.593Z,5.27
2018-02-27T13:11:42.071Z,3.40
2018-02-27T13:12:44.535Z,4.10
2018-02-27T13:13:47.009Z,3.90
2018-02-27T13:14:49.476Z,3.07
2018-02-27T13:15:51.243Z,5.13
2018-02-27T13:16:53.741Z,3.93
2018-02-27T13:17:56.203Z,5.13
2018-02-27T13:18:58.681Z,2.60
2018-02-27T13:20:01.157Z,4.90
2018-02-27T13:21:03.624Z,2.33
2018-02-27T13:22:06.120Z,5.80
2018-02-27T13:23:08.606Z,2.47
2018-02-27T13:24:11.088Z,5.27
2018-02-27T13:25:13.566Z,3.73
2018-02-27T13:26:16.053Z,4.40
2018-02-27T13:27:18.544Z,3.73
2018-02-27T13:28:21.081Z,8.67
2018-02-27T13:29:23.606Z,6.17
2018-02-27T13:30:26.075Z,16.00
2018-02-27T13:31:28.551Z,15.77
2018-02-27T13:32:31.061Z,12.53
2018-02-27T13:33:33.549Z,13.07
2018-02-27T13:34:36.024Z,13.23
2018-02-27T13:35:38.516Z,16.97
2018-02-27T13:36:40.989Z,20.20
2018-02-27T13:37:43.528Z,17.67
2018-02-27T13:38:46.110Z,24.63
2018-02-27T13:39:48.598Z,32.63
2018-02-27T13:40:51.117Z,37.60
2018-02-27T13:41:53.635Z,101.73
2018-02-27T13:42:56.135Z,106.87
2018-02-27T13:43:58.632Z,83.77
2018-02-27T13:45:01.104Z,74.23
2018-02-27T13:46:03.579Z,86.80
2018-02-27T13:47:06.051Z,81.10
2018-02-27T13:48:08.563Z,85.47
2018-02-27T13:49:11.095Z,70.63